Time;durP1;ratioP1;P1;durP2;ratioP2;P2;SDS_P1;SDS_P2;PMS_P1;PMS_P2;Temp;Humidity;BMP_temperature;BMP_pressure;BME280_temperature;BME280_humidity;BME280_pressure;Samples;Min_cycle;Max_cycle;Signal;HPM_P1;HPM_P2
2022/02/04 11:05:49;;;;;;;32.10;18.20;;;;;;;3.83;88.62;99581.09;105496;1277;97820;-74
2022/02/04 11:08:45;;;;;;;29.60;18.00;;;;;;;3.84;88.59;99579.17;107154;1274;139353;-75
2022/02/04 11:32:11;;;;;;;34.80;19.40;;;;;;;3.94;88.09;99565.94;106753;1279;140015;-75
2022/02/04 11:35:14;;;;;;;32.50;20.10;;;;;;;3.93;88.31;99562.86;106964;1279;96440;-76
2022/02/04 11:44:01;;;;;;;34.30;21.50;;;;;;;3.91;88.42;99560.66;105363;1279;139198;-77
2022/02/04 11:52:40;;;;;;;30.60;20.20;;;;;;;3.98;88.17;99550.58;106247;1274;113108;-76
2022/02/04 11:55:41;;;;;;;34.70;20.40;;;;;;;3.97;88.27;99550.43;106357;1274;138764;-75
2022/02/04 11:58:13;;;;;;;33.80;20.50;;;;;;;3.93;88.29;99549.96;106061;1279;108713;-74
2022/02/04 12:00:46;;;;;;;38.20;21.60;;;;;;;3.88;88.02;99546.44;105878;1279;140883;-75
2022/02/04 12:03:36;;;;;;;35.30;20.70;;;;;;;3.85;88.18;99542.88;106006;1279;97575;-75
2022/02/04 12:06:08;;;;;;;35.90;22.10;;;;;;;3.82;88.48;99538.80;105958;1279;113120;-74
2022/02/04 12:08:41;;;;;;;34.80;21.10;;;;;;;3.82;88.46;99541.55;105882;1279;139944;-75
2022/02/04 12:11:20;;;;;;;38.20;20.70;;;;;;;3.82;88.33;99542.24;105889;1279;109345;-76
2022/02/04 12:14:12;;;;;;;36.30;21.40;;;;;;;3.80;88.48;99544.50;105809;1279;139636;-74
2022/02/04 12:17:10;;;;;;;35.70;22.10;;;;;;;3.78;88.56;99542.83;106080;1279;96446;-76
2022/02/04 12:19:52;;;;;;;37.80;22.50;;;;;;;3.78;88.70;99542.48;105899;1279;138653;-76
2022/02/04 12:22:50;;;;;;;36.80;22.60;;;;;;;3.79;88.89;99535.59;106015;1279;108816;-76
2022/02/04 12:25:55;;;;;;;36.60;21.20;;;;;;;3.80;88.94;99537.98;105927;1279;140129;-78
2022/02/04 12:28:42;;;;;;;32.00;21.20;;;;;;;3.76;88.64;99535.09;105961;1279;97445;-74
2022/02/04 12:31:16;;;;;;;38.40;23.80;;;;;;;3.78;88.78;99532.84;106632;1281;138404;-72
2022/02/04 12:33:50;;;;;;;34.40;21.80;;;;;;;3.83;89.03;99529.34;106766;1276;111506;-73
2022/02/04 12:36:25;;;;;;;34.60;22.40;;;;;;;3.84;89.06;99527.59;106380;1276;108018;-73
2022/02/04 12:38:58;;;;;;;39.60;23.00;;;;;;;3.84;89.01;99522.77;106296;1276;138932;-74
2022/02/04 12:41:32;;;;;;;37.00;22.80;;;;;;;3.85;89.05;99519.31;106359;1276;97637;-73
2022/02/04 12:44:07;;;;;;;36.90;23.20;;;;;;;3.87;89.04;99520.30;106416;1274;139020;-72
2022/02/04 12:46:43;;;;;;;38.20;22.90;;;;;;;3.91;89.18;99522.98;106691;1275;112760;-73
2022/02/04 12:49:17;;;;;;;36.20;22.90;;;;;;;3.90;88.87;99519.38;106324;1276;138244;-71
2022/02/04 12:51:55;;;;;;;35.30;22.20;;;;;;;3.92;89.02;99517.98;106315;1276;108518;-74
2022/02/04 12:54:33;;;;;;;34.60;22.70;;;;;;;3.87;88.80;99518.08;106376;1274;97087;-73
2022/02/04 12:57:30;;;;;;;37.10;23.70;;;;;;;3.82;88.75;99521.94;106208;1276;137918;-73
2022/02/04 13:00:09;;;;;;;46.80;23.60;;;;;;;3.85;89.29;99516.22;107003;1276;112352;-74
2022/02/04 13:03:03;;;;;;;41.20;23.80;;;;;;;3.85;89.11;99512.27;106771;1276;138815;-74
2022/02/04 13:08:36;;;;;;;43.70;23.90;;;;;;;3.83;89.28;99506.27;106592;1280;138903;-74
2022/02/04 13:11:11;;;;;;;41.20;24.10;;;;;;;3.87;89.45;99505.52;106851;1279;96054;-74
2022/02/04 13:13:47;;;;;;;39.70;24.00;;;;;;;3.88;89.16;99505.33;106724;1279;139310;-75
2022/02/04 13:16:23;;;;;;;41.40;23.80;;;;;;;3.89;89.17;99500.66;106451;1279;108176;-76
2022/02/04 13:18:59;;;;;;;41.60;22.40;;;;;;;3.91;89.29;99495.30;106984;1279;139298;-74
2022/02/04 13:21:32;;;;;;;45.50;23.90;;;;;;;3.91;89.13;99496.15;107101;1279;96455;-75
2022/02/04 13:24:05;;;;;;;42.10;23.10;;;;;;;3.88;89.20;99493.45;106910;1279;96262;-74
2022/02/04 13:26:38;;;;;;;43.90;24.30;;;;;;;3.88;89.07;99489.70;106973;1279;138695;-75
2022/02/04 13:29:10;;;;;;;43.20;24.30;;;;;;;3.88;89.19;99488.30;107080;1279;107824;-74
2022/02/04 13:31:42;;;;;;;40.30;23.30;;;;;;;3.89;89.41;99491.20;106912;1279;138703;-74
2022/02/04 13:34:15;;;;;;;41.40;24.50;;;;;;;3.92;89.44;99488.23;106402;1279;96072;-73
2022/02/04 13:36:51;;;;;;;43.20;22.90;;;;;;;3.95;89.40;99487.50;105927;1279;138468;-73
2022/02/04 13:39:32;;;;;;;39.90;23.40;;;;;;;3.97;89.26;99485.59;106097;1279;112693;-73
2022/02/04 13:42:12;;;;;;;41.80;24.40;;;;;;;3.97;89.12;99485.58;106423;1280;108478;-73
2022/02/04 13:44:52;;;;;;;46.30;24.60;;;;;;;3.98;89.16;99484.54;106788;1279;138919;-72
2022/02/04 13:47:31;;;;;;;42.00;22.90;;;;;;;3.98;89.08;99480.75;107342;1276;96347;-74
2022/02/04 13:50:17;;;;;;;38.50;24.20;;;;;;;3.97;89.08;99480.77;107294;1275;139334;-74
2022/02/04 13:55:53;;;;;;;34.30;21.70;;;;;;;3.98;88.77;99481.79;107431;1274;139628;-75
2022/02/04 13:58:35;;;;;;;;;;;;;;;3.99;88.87;99482.11;107471;1274;108544;-75
2022/02/04 14:01:14;;;;;;;40.10;23.70;;;;;;;4.01;88.61;99477.25;107190;1276;124950;-74
2022/02/04 14:03:50;;;;;;;40.20;22.30;;;;;;;4.03;88.82;99477.89;107472;1274;96434;-74
2022/02/04 14:06:29;;;;;;;37.70;22.90;;;;;;;4.06;88.85;99480.43;106780;1276;109912;-72
2022/02/04 14:09:14;;;;;;;39.30;22.60;;;;;;;4.06;88.94;99482.65;106648;1276;137401;-74
2022/02/04 14:11:47;;;;;;;40.30;22.10;;;;;;;4.05;88.42;99478.88;107464;1274;109230;-76
2022/02/04 14:14:26;;;;;;;39.80;21.80;;;;;;;4.09;88.72;99480.37;107308;1274;138621;-75
2022/02/04 14:17:03;;;;;;;44.30;23.40;;;;;;;4.12;88.52;99475.48;107537;1274;96510;-75
2022/02/04 14:19:35;;;;;;;37.10;21.70;;;;;;;4.10;88.47;99470.89;106925;1274;138249;-75
2022/02/04 14:22:09;;;;;;;42.80;23.90;;;;;;;4.09;88.31;99473.48;107370;1277;109914;-74
2022/02/04 14:24:41;;;;;;;41.90;22.90;;;;;;;4.08;88.22;99474.36;107421;1276;108031;-74
2022/02/04 14:27:14;;;;;;;39.80;22.20;;;;;;;4.08;88.44;99472.64;107297;1276;139105;-74
2022/02/04 14:29:57;;;;;;;40.90;23.10;;;;;;;4.07;88.29;99468.02;107399;1276;96447;-75
2022/02/04 14:32:38;;;;;;;40.90;23.00;;;;;;;4.07;88.37;99469.73;107228;1276;138941;-75
2022/02/04 14:35:22;;;;;;;39.70;23.40;;;;;;;4.06;88.14;99467.70;107198;1276;106605;-74
2022/02/04 14:49:24;;;;;;;41.80;23.30;;;;;;;4.14;87.96;99466.70;107017;1277;138703;-70
2022/02/04 14:52:05;;;;;;;41.50;23.50;;;;;;;4.15;87.94;99474.41;106896;1276;108862;-77
2022/02/04 14:54:49;;;;;;;37.10;23.90;;;;;;;4.14;87.96;99471.00;106935;1276;96241;-76
2022/02/04 15:00:31;;;;;;;42.10;24.40;;;;;;;4.11;87.67;99466.39;107436;1274;114120;-75
2022/02/04 15:03:17;;;;;;;46.80;24.40;;;;;;;4.10;87.65;99467.95;107338;1274;138486;-81
2022/02/04 15:06:01;;;;;;;41.60;23.80;;;;;;;4.10;87.77;99469.16;106905;1274;108891;-78
2022/02/04 15:08:54;;;;;;;43.20;24.50;;;;;;;4.09;87.55;99473.48;107225;1276;138424;-76
2022/02/04 15:11:31;;;;;;;43.70;24.90;;;;;;;4.10;87.58;99460.90;107394;1276;96318;-78
2022/02/04 15:14:05;;;;;;;47.00;25.90;;;;;;;4.12;87.74;99467.23;107223;1276;139052;-76
2022/02/04 15:16:39;;;;;;;49.70;26.40;;;;;;;4.13;87.71;99461.54;107420;1276;107998;-76
2022/02/04 15:19:11;;;;;;;42.20;26.20;;;;;;;4.16;87.59;99458.39;107261;1276;138582;-75
2022/02/04 15:21:47;;;;;;;46.70;27.10;;;;;;;4.19;87.73;99459.70;107439;1276;95879;-76
2022/02/04 15:24:19;;;;;;;48.90;27.50;;;;;;;4.22;87.41;99460.86;107493;1276;96148;-76
2022/02/04 15:26:51;;;;;;;54.70;29.10;;;;;;;4.22;87.61;99464.81;107294;1275;139282;-77
2022/02/04 15:29:23;;;;;;;52.60;29.00;;;;;;;4.24;87.44;99467.36;107407;1276;108200;-77
2022/02/04 15:31:57;;;;;;;53.60;29.10;;;;;;;4.25;87.39;99465.27;107296;1276;139867;-76
2022/02/04 15:34:30;;;;;;;54.20;28.70;;;;;;;4.27;87.51;99464.36;107297;1276;96431;-77
2022/02/04 15:37:03;;;;;;;52.00;27.80;;;;;;;4.29;87.10;99461.94;107259;1276;139032;-77
2022/02/04 15:39:35;;;;;;;51.40;28.10;;;;;;;4.28;87.43;99460.73;107374;1276;110479;-77
2022/02/04 15:42:11;;;;;;;56.50;28.40;;;;;;;4.30;87.35;99462.59;107431;1276;108356;-76
2022/02/04 15:44:57;;;;;;;57.80;29.20;;;;;;;4.32;87.21;99460.17;107262;1276;138407;-76
2022/02/04 15:47:38;;;;;;;53.80;28.50;;;;;;;4.32;87.28;99454.84;107056;1276;96336;-77
2022/02/04 15:50:27;;;;;;;56.50;28.90;;;;;;;4.34;87.12;99456.52;107395;1276;138192;-77
2022/02/04 15:53:21;;;;;;;55.80;28.80;;;;;;;4.34;86.91;99450.15;107511;1274;111406;-76
2022/02/04 16:04:28;;;;;;;55.80;28.60;;;;;;;4.25;86.85;99450.63;106737;1276;96348;-74
2022/02/04 16:07:00;;;;;;;50.20;28.20;;;;;;;4.26;86.97;99446.66;107267;1276;139231;-73
2022/02/04 16:09:32;;;;;;;55.10;29.00;;;;;;;4.27;86.87;99446.65;107218;1276;110872;-74
2022/02/04 16:12:09;;;;;;;52.00;28.40;;;;;;;4.29;87.12;99443.70;107321;1276;107949;-75
2022/02/04 16:14:47;;;;;;;55.30;29.40;;;;;;;4.25;86.94;99438.41;107356;1273;140319;-74
2022/02/04 16:17:30;;;;;;;51.30;28.60;;;;;;;4.23;86.93;99436.40;107562;1273;96284;-74
2022/02/04 16:20:13;;;;;;;52.90;29.10;;;;;;;4.18;86.79;99436.33;106950;1273;138824;-72
2022/02/04 16:23:09;;;;;;;53.40;30.60;;;;;;;4.15;86.88;99437.95;107073;1274;111987;-72
2022/02/04 16:25:56;;;;;;;55.20;29.90;;;;;;;4.12;86.97;99433.16;106992;1274;139350;-71
2022/02/04 16:28:41;;;;;;;55.30;28.80;;;;;;;4.08;86.82;99429.10;107058;1274;96350;-73
2022/02/04 16:31:16;;;;;;;56.00;29.60;;;;;;;4.05;86.99;99428.84;107372;1273;138557;-72
2022/02/04 16:33:50;;;;;;;56.50;30.30;;;;;;;4.01;87.22;99427.02;107424;1274;112420;-73
2022/02/04 16:36:25;;;;;;;51.80;29.10;;;;;;;3.96;86.86;99423.17;107394;1275;106898;-73
2022/02/04 16:38:57;;;;;;;50.40;29.50;;;;;;;3.90;86.92;99416.38;107322;1274;138575;-73
2022/02/04 16:41:33;;;;;;;54.20;28.40;;;;;;;3.85;87.12;99413.04;107123;1274;96389;-72
2022/02/04 16:44:05;;;;;;;55.70;29.50;;;;;;;3.81;87.17;99408.99;107336;1276;138442;-72
2022/02/04 16:46:38;;;;;;;58.80;29.00;;;;;;;3.78;87.39;99403.73;107445;1276;112923;-72
2022/02/04 16:49:10;;;;;;;53.40;29.70;;;;;;;3.76;87.21;99406.31;106654;1273;138512;-71
2022/02/04 16:51:42;;;;;;;57.60;31.50;;;;;;;3.74;87.25;99403.42;107424;1273;107739;-71
2022/02/04 16:54:14;;;;;;;55.00;29.60;;;;;;;3.72;87.38;99397.45;107500;1275;96197;-71
2022/02/04 16:56:45;;;;;;;53.30;29.40;;;;;;;3.71;87.33;99395.06;107006;1274;139385;-72
2022/02/04 16:59:18;;;;;;;53.40;28.20;;;;;;;3.69;87.31;99391.17;107109;1273;112835;-76
2022/02/04 17:01:50;;;;;;;48.70;26.70;;;;;;;3.68;87.50;99394.79;107432;1273;138787;-78
2022/02/04 17:04:23;;;;;;;45.80;25.60;;;;;;;3.67;87.48;99393.61;107502;1273;109049;-69
2022/02/04 17:06:59;;;;;;;46.00;25.50;;;;;;;3.68;87.46;99398.05;107470;1274;96580;-72
2022/02/04 17:09:34;;;;;;;;;;;;;;;3.68;87.47;99403.02;107408;1273;139104;-72
2022/02/04 17:12:11;;;;;;;48.20;25.90;;;;;;;3.70;87.64;99397.33;107476;1273;112723;-73
2022/02/04 17:14:41;;;;;;;;;;;;;;;3.74;87.66;99394.66;107378;1273;138537;-74
2022/02/04 17:17:13;;;;;;;39.50;23.40;;;;;;;3.76;87.60;99399.60;107451;1273;109189;-73
2022/02/04 17:19:52;;;;;;;43.00;25.20;;;;;;;3.81;87.50;99398.00;107359;1274;138875;-71
2022/02/04 17:22:24;;;;;;;45.20;25.40;;;;;;;3.88;87.71;99394.41;107535;1273;96185;-75
2022/02/04 17:24:56;;;;;;;41.90;25.10;;;;;;;3.91;87.41;99392.61;107507;1273;113943;-75
2022/02/04 17:27:30;;;;;;;44.30;25.70;;;;;;;3.95;87.35;99391.54;107410;1276;138008;-75
2022/02/04 17:30:02;;;;;;;44.10;26.00;;;;;;;3.95;87.01;99391.89;107339;1276;109421;-74
2022/02/04 17:32:34;;;;;;;45.20;26.90;;;;;;;3.91;86.90;99391.42;107365;1275;138589;-75
2022/02/04 17:35:09;;;;;;;48.20;28.40;;;;;;;3.91;86.92;99390.89;107536;1273;96079;-78
2022/02/04 17:37:42;;;;;;;42.30;25.10;;;;;;;3.94;87.08;99386.38;107394;1274;138570;-73
2022/02/04 17:40:18;;;;;;;42.50;24.90;;;;;;;3.94;86.84;99387.92;107516;1273;107929;-73
2022/02/04 17:42:51;;;;;;;40.20;25.30;;;;;;;3.94;86.96;99386.55;107489;1273;109240;-73
2022/02/04 17:45:23;;;;;;;37.70;23.80;;;;;;;3.93;86.96;99389.65;107280;1274;139476;-73
2022/02/04 17:48:03;;;;;;;42.10;24.50;;;;;;;3.95;86.67;99385.86;107532;1274;95804;-74
2022/02/04 17:50:48;;;;;;;37.80;23.70;;;;;;;3.98;86.85;99388.57;107384;1273;139013;-74
2022/02/04 17:53:24;;;;;;;43.60;24.90;;;;;;;4.00;86.82;99384.23;107557;1273;108424;-74
2022/02/04 17:56:01;;;;;;;43.20;25.70;;;;;;;4.02;86.74;99379.19;107281;1275;137890;-75
2022/02/04 17:58:41;;;;;;;40.20;24.90;;;;;;;4.03;86.57;99384.84;107499;1273;95943;-74
2022/02/04 18:01:24;;;;;;;40.70;24.70;;;;;;;4.01;86.40;99384.38;107359;1276;137763;-75
2022/02/04 18:07:07;;;;;;;41.10;24.80;;;;;;;3.99;86.46;99375.64;107470;1273;109086;-78
2022/02/04 18:09:41;;;;;;;40.00;25.00;;;;;;;4.00;86.47;99368.73;107421;1273;138909;-77
2022/02/04 18:12:14;;;;;;;43.00;24.60;;;;;;;4.01;86.46;99369.23;107506;1274;96770;-74
2022/02/04 18:14:46;;;;;;;41.10;24.30;;;;;;;4.01;86.62;99370.95;107296;1274;138504;-76
2022/02/04 18:17:19;;;;;;;46.10;24.30;;;;;;;4.04;86.54;99369.52;107518;1273;112607;-74
2022/02/04 18:19:51;;;;;;;41.90;26.10;;;;;;;4.06;86.50;99365.84;107382;1274;140053;-74
2022/02/04 18:22:23;;;;;;;44.20;24.90;;;;;;;4.07;86.55;99362.39;107388;1274;108839;-74
2022/02/04 18:24:56;;;;;;;43.40;25.80;;;;;;;4.07;86.19;99361.36;107505;1274;95797;-74
2022/02/04 18:27:28;;;;;;;42.90;26.30;;;;;;;4.04;86.38;99361.42;107426;1273;137690;-75
2022/02/04 18:30:02;;;;;;;43.40;25.30;;;;;;;4.02;86.46;99356.65;107549;1273;111186;-75
2022/02/04 18:32:35;;;;;;;40.10;25.00;;;;;;;4.01;86.30;99357.19;107401;1273;138645;-76
2022/02/04 18:35:09;;;;;;;40.70;25.70;;;;;;;4.00;86.32;99357.05;107494;1274;108821;-75
2022/02/04 18:37:45;;;;;;;42.60;24.70;;;;;;;3.98;86.49;99356.92;107415;1274;139652;-75
2022/02/04 18:40:52;;;;;;;41.20;25.50;;;;;;;3.97;86.63;99357.11;107514;1274;96185;-74
2022/02/04 18:46:32;;;;;;;44.20;25.90;;;;;;;4.00;86.67;99360.66;107507;1273;108870;-81
2022/02/04 18:49:14;;;;;;;45.40;28.00;;;;;;;4.02;86.62;99361.64;107518;1274;109396;-81
2022/02/04 18:51:54;;;;;;;47.30;28.00;;;;;;;4.00;86.52;99359.61;107427;1274;138339;-81
2022/02/04 18:54:43;;;;;;;45.80;27.50;;;;;;;4.02;86.60;99359.05;107488;1274;96240;-81
2022/02/04 18:57:20;;;;;;;43.30;27.70;;;;;;;4.02;86.55;99359.76;107444;1274;138705;-81
2022/02/04 18:59:59;;;;;;;46.30;26.80;;;;;;;4.02;86.67;99363.19;107532;1274;108612;-77
2022/02/04 19:02:32;;;;;;;43.60;25.40;;;;;;;4.02;86.37;99357.50;107376;1274;138590;-76
2022/02/04 19:05:12;;;;;;;41.20;26.70;;;;;;;4.03;86.68;99360.23;107515;1274;96524;-77
2022/02/04 19:07:49;;;;;;;45.30;25.80;;;;;;;4.05;86.47;99356.92;107396;1274;139114;-77
2022/02/04 19:10:21;;;;;;;37.80;25.20;;;;;;;4.07;86.59;99358.77;107568;1274;109684;-77
2022/02/04 19:12:57;;;;;;;47.00;26.90;;;;;;;4.09;86.52;99363.02;107548;1274;108451;-77
2022/02/04 19:15:45;;;;;;;43.30;28.00;;;;;;;4.11;86.49;99362.48;107403;1274;138700;-77
2022/02/04 19:18:25;;;;;;;45.80;28.50;;;;;;;4.13;86.47;99357.28;107569;1273;96164;-77
2022/02/04 19:21:05;;;;;;;43.20;26.60;;;;;;;4.15;86.48;99355.54;107442;1274;138764;-77
2022/02/04 19:23:46;;;;;;;41.00;25.60;;;;;;;4.13;86.41;99353.67;107569;1273;112020;-77
2022/02/04 19:26:25;;;;;;;46.20;25.80;;;;;;;4.11;86.28;99347.00;107390;1274;138509;-80
2022/02/04 19:28:57;;;;;;;40.40;25.30;;;;;;;4.11;86.43;99348.55;107497;1274;108919;-80
2022/02/04 19:31:39;;;;;;;37.80;24.60;;;;;;;4.11;86.39;99342.18;106839;1273;139080;-82
2022/02/04 19:34:12;;;;;;;39.90;26.00;;;;;;;4.10;86.36;99341.17;107593;1273;96151;-80
2022/02/04 19:36:45;;;;;;;38.90;25.60;;;;;;;4.11;86.51;99339.42;107604;1274;111438;-82
2022/02/04 19:39:20;;;;;;;46.30;27.00;;;;;;;4.13;86.46;99337.51;107446;1274;139560;-82
2022/02/04 19:42:01;;;;;;;43.10;27.40;;;;;;;4.11;86.39;99337.02;107602;1274;109006;-82
2022/02/04 19:44:36;;;;;;;46.00;27.80;;;;;;;4.08;86.45;99333.80;107449;1274;140185;-82
2022/02/04 19:47:12;;;;;;;42.00;24.70;;;;;;;4.08;86.44;99336.74;107581;1274;96618;-81
2022/02/04 19:49:52;;;;;;;41.40;25.70;;;;;;;4.05;86.44;99332.50;107467;1274;142080;-83
2022/02/04 19:52:31;;;;;;;36.90;24.60;;;;;;;4.04;86.60;99326.15;107620;1274;107915;-87
2022/02/04 20:23:54;;;;;;;36.30;23.20;;;;;;;4.06;86.20;99301.17;107183;1279;108785;-87
2022/02/04 20:26:26;;;;;;;37.80;22.80;;;;;;;4.07;86.54;99303.23;107084;1278;140636;-83
2022/02/04 20:28:58;;;;;;;41.00;25.70;;;;;;;4.10;86.15;99300.06;107206;1278;96101;-89
2022/02/04 20:31:31;;;;;;;39.40;24.50;;;;;;;4.13;86.38;99294.67;107069;1279;138635;-86
2022/02/04 20:34:03;;;;;;;38.60;24.40;;;;;;;4.14;85.90;99299.30;107088;1279;108739;-84
2022/02/04 20:36:36;;;;;;;35.30;22.10;;;;;;;4.11;85.75;99290.91;107237;1279;109011;-83
2022/02/04 20:39:10;;;;;;;37.90;24.20;;;;;;;4.09;85.74;99283.90;107394;1274;138375;-88
2022/02/04 20:41:46;;;;;;;39.60;22.70;;;;;;;4.11;85.63;99286.27;107633;1274;96121;-87
2022/02/04 20:44:18;;;;;;;32.90;21.20;;;;;;;4.11;85.61;99286.79;107413;1274;138450;-86
2022/02/04 20:46:50;;;;;;;34.00;21.00;;;;;;;4.10;85.36;99280.11;107575;1274;107982;-86
2022/02/04 20:49:23;;;;;;;32.70;22.30;;;;;;;4.10;85.35;99281.29;107559;1274;108861;-82
2022/02/04 20:51:54;;;;;;;32.30;19.50;;;;;;;4.13;85.32;99282.27;107389;1274;138152;-69
2022/02/04 20:54:26;;;;;;;34.30;21.10;;;;;;;4.13;85.19;99284.86;107570;1274;96038;-78
2022/02/04 20:56:58;;;;;;;39.10;22.00;;;;;;;4.12;85.07;99282.64;107419;1274;139156;-79
2022/02/04 20:59:34;;;;;;;37.20;21.70;;;;;;;4.11;85.04;99276.63;107554;1275;108915;-78
2022/02/04 21:02:06;;;;;;;32.70;20.90;;;;;;;4.10;84.76;99282.33;107383;1274;138480;-78
2022/02/04 21:04:41;;;;;;;31.00;20.50;;;;;;;4.09;84.93;99277.37;107513;1274;96231;-77
2022/02/04 21:07:22;;;;;;;37.70;20.30;;;;;;;4.08;84.43;99266.37;107417;1274;96003;-80
2022/02/04 21:13:43;;;;;;;31.20;20.10;;;;;;;4.09;84.63;99267.21;107417;1273;139109;-79
2022/02/04 21:15:41;;;;;;;31.40;19.80;;;;;;;4.13;84.54;99270.06;106356;1274;138389;-79
2022/02/04 21:18:14;;;;;;;32.70;20.00;;;;;;;4.14;84.33;99258.70;106624;1274;97591;-80
2022/02/04 21:20:46;;;;;;;30.80;20.20;;;;;;;4.14;84.01;99256.81;106421;1275;138147;-74
2022/02/04 21:23:19;;;;;;;38.20;21.80;;;;;;;4.11;83.92;99254.95;106655;1274;112413;-80
2022/02/04 21:25:51;;;;;;;33.70;20.30;;;;;;;4.08;84.06;99247.80;106466;1274;137987;-82
2022/02/04 21:28:25;;;;;;;31.70;19.70;;;;;;;4.09;84.00;99248.47;107252;1274;108927;-81
2022/02/04 21:30:59;;;;;;;34.30;19.30;;;;;;;4.08;83.90;99248.48;107148;1273;96141;-81
2022/02/04 21:33:44;;;;;;;31.00;19.40;;;;;;;4.09;83.84;99242.44;107323;1273;151346;-81
2022/02/04 21:39:06;;;;;;;31.50;19.70;;;;;;;4.13;83.43;99237.21;107534;1273;139937;-78
2022/02/04 21:41:38;;;;;;;31.40;20.20;;;;;;;4.15;83.38;99232.17;107593;1273;109050;-77
2022/02/04 21:44:10;;;;;;;35.50;21.80;;;;;;;4.16;83.38;99231.81;107394;1274;138654;-77
2022/02/04 21:46:43;;;;;;;35.00;21.30;;;;;;;4.17;83.06;99230.58;107559;1273;96037;-81
2022/02/04 21:49:15;;;;;;;35.00;22.20;;;;;;;4.15;83.29;99224.96;107565;1274;110171;-82
2022/02/04 21:51:47;;;;;;;32.80;20.30;;;;;;;4.14;83.09;99226.87;107480;1273;139337;-82
2022/02/04 21:54:19;;;;;;;32.70;19.90;;;;;;;4.13;82.93;99231.52;106619;1274;107795;-82
2022/02/04 21:56:51;;;;;;;31.90;19.40;;;;;;;4.12;82.96;99224.66;105805;1274;138768;-80
2022/02/04 21:59:23;;;;;;;30.70;18.70;;;;;;;4.12;82.78;99222.25;105351;1274;97733;-81
2022/02/04 22:01:55;;;;;;;33.20;19.90;;;;;;;4.11;82.92;99221.07;105863;1274;138150;-81
2022/02/04 22:04:27;;;;;;;34.00;20.20;;;;;;;4.11;83.04;99212.27;106079;1273;108526;-82
2022/02/04 22:06:59;;;;;;;32.50;20.00;;;;;;;4.11;82.73;99209.02;106082;1273;108994;-82
2022/02/04 22:09:43;;;;;;;32.80;19.20;;;;;;;4.10;82.66;99207.68;105615;1274;137905;-84
2022/02/04 22:12:46;;;;;;;30.80;18.90;;;;;;;4.08;82.58;99199.12;106030;1274;97935;-83
2022/02/04 22:15:42;;;;;;;32.70;20.30;;;;;;;4.05;82.69;99191.96;105879;1274;138316;-82
2022/02/04 22:23:49;;;;;;;37.00;21.80;;;;;;;4.01;82.71;99183.48;105665;1279;97917;-84
2022/02/04 22:26:22;;;;;;;33.20;21.20;;;;;;;3.98;82.59;99177.86;105367;1281;137865;-84
2022/02/04 22:28:54;;;;;;;36.30;22.40;;;;;;;3.92;82.57;99175.73;105297;1281;111416;-84
2022/02/04 22:31:27;;;;;;;36.10;21.40;;;;;;;3.88;82.49;99176.19;104709;1281;107743;-84
2022/02/04 22:34:13;;;;;;;34.30;21.10;;;;;;;3.83;82.58;99178.53;104402;1281;138470;-85
2022/02/04 22:40:00;;;;;;;33.60;20.20;;;;;;;3.80;82.74;99176.55;105292;1281;138669;-85
2022/02/04 22:48:55;;;;;;;32.00;20.30;;;;;;;3.83;82.69;99167.36;102648;1312;636831;-81
2022/02/04 22:51:47;;;;;;;36.60;20.20;;;;;;;3.82;82.81;99170.98;106380;1280;136658;-82
2022/02/04 22:54:46;;;;;;;32.80;20.20;;;;;;;3.79;82.29;99171.56;106045;1283;94954;-82
2022/02/04 22:57:22;;;;;;;31.80;19.20;;;;;;;3.76;82.45;99166.83;106672;1280;136973;-83
2022/02/04 22:59:57;;;;;;;35.50;20.00;;;;;;;3.75;82.19;99161.50;107021;1281;109170;-83
2022/02/04 23:02:29;;;;;;;33.70;19.50;;;;;;;3.75;82.26;99156.19;107166;1277;137212;-83
2022/02/04 23:05:01;;;;;;;32.40;18.50;;;;;;;3.76;82.38;99160.27;107243;1278;92822;-82
2022/02/04 23:07:34;;;;;;;28.90;18.00;;;;;;;3.79;82.06;99152.85;107317;1277;94040;-82
2022/02/04 23:10:07;;;;;;;29.00;17.40;;;;;;;3.82;82.03;99156.73;107586;1274;137801;-82
2022/02/04 23:12:39;;;;;;;29.80;17.60;;;;;;;3.84;81.94;99151.54;107622;1274;108872;-82
2022/02/04 23:15:13;;;;;;;32.70;18.30;;;;;;;3.84;81.59;99146.02;106634;1274;139819;-84
2022/02/04 23:17:52;;;;;;;31.50;19.10;;;;;;;3.84;81.47;99144.64;106727;1273;95004;-83
2022/02/04 23:20:25;;;;;;;33.30;18.50;;;;;;;3.84;81.62;99141.02;107564;1273;137595;-83
2022/02/04 23:23:03;;;;;;;28.40;17.70;;;;;;;3.86;81.34;99140.46;107735;1273;109853;-83
2022/02/04 23:25:41;;;;;;;30.80;17.30;;;;;;;3.88;81.54;99134.73;107648;1273;109023;-83
2022/02/04 23:28:32;;;;;;;29.50;17.80;;;;;;;3.92;81.35;99122.77;107548;1273;137489;-83
2022/02/04 23:31:47;;;;;;;26.80;16.80;;;;;;;3.96;81.27;99118.23;107674;1273;93353;-83
2022/02/04 23:45:20;;;;;;;27.80;17.50;;;;;;;3.85;80.77;99094.23;105872;1273;138038;-85
2022/02/04 23:50:42;;;;;;;27.00;16.90;;;;;;;3.82;80.74;99095.68;105968;1273;138054;-81
2022/02/04 23:53:14;;;;;;;28.50;17.50;;;;;;;3.81;80.38;99086.42;106110;1273;108984;-85
2022/02/04 23:55:47;;;;;;;31.40;18.10;;;;;;;3.82;80.34;99082.80;105988;1274;107822;-84
2022/02/04 23:58:19;;;;;;;28.90;18.00;;;;;;;3.81;80.52;99080.23;105955;1273;136777;-85
